Time;durP1;ratioP1;P1;durP2;ratioP2;P2;SDS_P1;SDS_P2;PMS_P1;PMS_P2;Temp;Humidity;BMP_temperature;BMP_pressure;BME280_temperature;BME280_humidity;BME280_pressure;Samples;Min_cycle;Max_cycle;Signal;HPM_P1;HPM_P2
2024/04/19 00:01:27;;;;;;;5.45;1.95;;;;;;;;;;5427491;26;20007;-71
2024/04/19 00:03:52;;;;;;;5.35;2.15;;;;;;;;;;5425242;26;20063;-64
2024/04/19 00:06:18;;;;;;;4.75;1.98;;;;;;;;;;5442124;26;20007;-61
2024/04/19 00:08:43;;;;;;;5.13;1.92;;;;;;;;;;5417784;26;20068;-61
2024/04/19 00:11:09;;;;;;;4.90;2.30;;;;;;;;;;5439779;26;20009;-64
2024/04/19 00:13:34;;;;;;;4.97;1.88;;;;;;;;;;5434603;26;20003;-64
2024/04/19 00:16:00;;;;;;;7.68;2.50;;;;;;;;;;5413675;26;20068;-62
2024/04/19 00:18:26;;;;;;;5.75;2.40;;;;;;;;;;5425431;26;19994;-60
2024/04/19 00:20:54;;;;;;;5.78;2.40;;;;;;;;;;5434661;26;19996;-61
2024/04/19 00:23:19;;;;;;;6.20;2.13;;;;;;;;;;5416030;26;19999;-62
2024/04/19 00:25:45;;;;;;;5.43;2.17;;;;;;;;;;5418844;26;20007;-65
2024/04/19 00:28:10;;;;;;;5.10;1.98;;;;;;;;;;5445071;26;20000;-61
2024/04/19 00:30:36;;;;;;;5.60;2.17;;;;;;;;;;5447512;26;20010;-61
2024/04/19 00:33:02;;;;;;;7.05;2.10;;;;;;;;;;5429532;26;20052;-61
2024/04/19 00:35:27;;;;;;;4.65;2.10;;;;;;;;;;5414751;26;19996;-63
2024/04/19 00:37:53;;;;;;;5.28;2.20;;;;;;;;;;5415038;26;20003;-60
2024/04/19 00:40:18;;;;;;;5.47;2.13;;;;;;;;;;5426807;26;20064;-61
2024/04/19 00:42:44;;;;;;;4.85;2.10;;;;;;;;;;5438297;26;19995;-61
2024/04/19 00:45:28;;;;;;;4.75;2.33;;;;;;;;;;5435340;26;20006;-65
2024/04/19 00:47:54;;;;;;;4.65;2.00;;;;;;;;;;5429221;26;20382;-60
2024/04/19 00:50:19;;;;;;;5.28;2.10;;;;;;;;;;5441421;26;19999;-65
2024/04/19 00:52:45;;;;;;;5.15;2.40;;;;;;;;;;5414532;26;20004;-62
2024/04/19 00:55:10;;;;;;;5.25;2.35;;;;;;;;;;5426039;26;20044;-62
2024/04/19 00:57:37;;;;;;;5.85;2.13;;;;;;;;;;5442358;26;20479;-62
2024/04/19 01:00:02;;;;;;;5.18;2.20;;;;;;;;;;5450761;26;20401;-61
2024/04/19 01:02:28;;;;;;;5.38;2.13;;;;;;;;;;5444126;26;19998;-66
2024/04/19 01:04:53;;;;;;;4.80;2.00;;;;;;;;;;5433972;26;20007;-62
2024/04/19 01:07:19;;;;;;;7.65;2.17;;;;;;;;;;5419270;26;20007;-61
2024/04/19 01:09:45;;;;;;;5.95;2.20;;;;;;;;;;5432132;26;20009;-61
2024/04/19 01:12:10;;;;;;;4.82;2.10;;;;;;;;;;5448462;26;20009;-63
2024/04/19 01:14:36;;;;;;;4.82;2.05;;;;;;;;;;5424527;26;20008;-63
2024/04/19 01:17:01;;;;;;;5.18;2.40;;;;;;;;;;5432948;26;20013;-60
2024/04/19 01:19:27;;;;;;;4.55;2.05;;;;;;;;;;5437411;26;20000;-65
2024/04/19 01:21:53;;;;;;;5.13;2.35;;;;;;;;;;5413720;26;20008;-63
2024/04/19 01:24:23;;;;;;;5.30;2.30;;;;;;;;;;5412826;26;20072;-63
2024/04/19 01:26:49;;;;;;;8.57;2.83;;;;;;;;;;5425997;26;20014;-61
2024/04/19 01:29:14;;;;;;;5.43;2.50;;;;;;;;;;5447957;26;20005;-61
2024/04/19 01:31:41;;;;;;;5.53;2.03;;;;;;;;;;5426914;26;20011;-63
2024/04/19 01:34:06;;;;;;;5.22;2.30;;;;;;;;;;5431944;26;20005;-61
2024/04/19 01:36:32;;;;;;;5.15;2.30;;;;;;;;;;5442131;26;20004;-62
2024/04/19 01:38:57;;;;;;;5.90;2.05;;;;;;;;;;5420178;26;19991;-62
2024/04/19 01:41:23;;;;;;;5.13;1.90;;;;;;;;;;5415185;26;20496;-62
2024/04/19 01:43:49;;;;;;;4.93;1.90;;;;;;;;;;5450642;26;20443;-61
2024/04/19 01:46:15;;;;;;;5.57;2.10;;;;;;;;;;5418334;26;19995;-63
2024/04/19 01:48:40;;;;;;;5.25;1.90;;;;;;;;;;5414814;26;20551;-63
2024/04/19 01:51:06;;;;;;;5.70;2.00;;;;;;;;;;5432580;26;20011;-63
2024/04/19 01:53:31;;;;;;;4.47;1.83;;;;;;;;;;5440574;26;20011;-63
2024/04/19 01:55:57;;;;;;;4.25;1.75;;;;;;;;;;5440504;26;20056;-61
2024/04/19 01:58:22;;;;;;;6.03;1.98;;;;;;;;;;5448726;26;20063;-63
2024/04/19 02:00:48;;;;;;;4.95;1.73;;;;;;;;;;5428334;26;20007;-62
2024/04/19 02:03:13;;;;;;;4.38;1.98;;;;;;;;;;5416738;26;20011;-63
2024/04/19 02:05:39;;;;;;;6.07;2.03;;;;;;;;;;5417337;26;20017;-62
2024/04/19 02:08:05;;;;;;;4.47;1.90;;;;;;;;;;5452440;26;20074;-64
2024/04/19 02:10:33;;;;;;;5.97;1.95;;;;;;;;;;5435154;26;20343;-60
2024/04/19 02:12:59;;;;;;;5.30;1.95;;;;;;;;;;5417775;26;20016;-64
2024/04/19 02:15:25;;;;;;;4.43;1.90;;;;;;;;;;5438389;26;20490;-64
2024/04/19 02:17:50;;;;;;;5.38;1.65;;;;;;;;;;5450616;26;20004;-60
2024/04/19 02:20:16;;;;;;;6.20;1.67;;;;;;;;;;5434701;26;20007;-61
2024/04/19 02:22:41;;;;;;;5.82;1.73;;;;;;;;;;5422697;26;20059;-64
2024/04/19 02:25:07;;;;;;;5.60;1.95;;;;;;;;;;5450539;26;19991;-64
2024/04/19 02:33:01;;;;;;;3.92;1.55;;;;;;;;;;5416132;26;20074;-60
2024/04/19 02:35:26;;;;;;;4.25;1.50;;;;;;;;;;5422945;26;20346;-61
2024/04/19 02:37:52;;;;;;;4.95;1.67;;;;;;;;;;5435107;26;19995;-63
2024/04/19 02:40:17;;;;;;;5.30;1.60;;;;;;;;;;5442914;26;20010;-63
2024/04/19 02:42:43;;;;;;;6.35;1.63;;;;;;;;;;5440529;26;20043;-60
2024/04/19 02:45:08;;;;;;;5.45;1.70;;;;;;;;;;5447061;26;20002;-61
2024/04/19 02:47:36;;;;;;;4.55;1.60;;;;;;;;;;5421827;26;20007;-63
2024/04/19 02:50:01;;;;;;;6.15;1.63;;;;;;;;;;5415854;26;20004;-64
2024/04/19 02:52:27;;;;;;;4.68;1.60;;;;;;;;;;5416144;26;20007;-67
2024/04/19 02:54:52;;;;;;;4.00;1.58;;;;;;;;;;5414239;26;20010;-61
2024/04/19 02:57:18;;;;;;;5.05;1.80;;;;;;;;;;5435387;26;20015;-63
2024/04/19 02:59:43;;;;;;;4.47;1.80;;;;;;;;;;5438011;26;20368;-60
2024/04/19 03:02:09;;;;;;;6.13;1.80;;;;;;;;;;5416384;26;20339;-60
2024/04/19 03:04:36;;;;;;;6.07;1.75;;;;;;;;;;5416534;26;20463;-63
2024/04/19 03:07:01;;;;;;;5.38;1.70;;;;;;;;;;5444125;26;20052;-60
2024/04/19 03:09:27;;;;;;;5.57;1.70;;;;;;;;;;5466302;26;19995;-70
2024/04/19 03:11:52;;;;;;;4.88;1.90;;;;;;;;;;5437041;26;20069;-61
2024/04/19 03:14:18;;;;;;;4.00;1.60;;;;;;;;;;5442838;26;20024;-65
2024/04/19 03:16:43;;;;;;;8.05;1.70;;;;;;;;;;5450710;26;20057;-63
2024/04/19 03:19:09;;;;;;;6.13;1.80;;;;;;;;;;5424712;26;20011;-60
2024/04/19 03:21:34;;;;;;;4.57;1.75;;;;;;;;;;5417132;26;20064;-63
2024/04/19 03:24:00;;;;;;;6.00;1.75;;;;;;;;;;5434576;26;19995;-63
2024/04/19 03:26:25;;;;;;;4.65;1.70;;;;;;;;;;5424526;26;20543;-63
2024/04/19 03:28:51;;;;;;;5.10;1.50;;;;;;;;;;5426642;26;20415;-62
2024/04/19 03:31:17;;;;;;;4.18;1.60;;;;;;;;;;5448560;26;20403;-61
2024/04/19 03:33:42;;;;;;;4.03;1.52;;;;;;;;;;5447286;26;20372;-63
2024/04/19 03:36:08;;;;;;;5.57;1.70;;;;;;;;;;5430522;26;20744;-61
2024/04/19 03:38:33;;;;;;;5.35;1.77;;;;;;;;;;5418562;26;20520;-63
2024/04/19 03:40:59;;;;;;;4.28;1.60;;;;;;;;;;5432868;26;20000;-62
2024/04/19 03:43:24;;;;;;;4.68;2.05;;;;;;;;;;5436825;26;20007;-65
2024/04/19 03:45:50;;;;;;;4.72;1.73;;;;;;;;;;5448624;26;20068;-62
2024/04/19 03:48:15;;;;;;;5.97;1.65;;;;;;;;;;5443169;26;20002;-64
2024/04/19 03:50:45;;;;;;;5.18;1.60;;;;;;;;;;5420241;26;20015;-65
2024/04/19 03:53:10;;;;;;;7.25;1.50;;;;;;;;;;5414792;26;19996;-60
2024/04/19 03:55:36;;;;;;;4.22;1.60;;;;;;;;;;5414416;26;19999;-63
2024/04/19 03:58:01;;;;;;;4.18;1.60;;;;;;;;;;5414622;26;20008;-62
2024/04/19 04:00:27;;;;;;;5.85;1.73;;;;;;;;;;5414839;26;20068;-70
2024/04/19 04:02:52;;;;;;;4.57;1.52;;;;;;;;;;5431066;26;19991;-61
2024/04/19 04:05:18;;;;;;;4.90;1.50;;;;;;;;;;5429629;26;19999;-62
2024/04/19 04:07:44;;;;;;;4.43;1.67;;;;;;;;;;5447135;26;20013;-61
2024/04/19 04:10:09;;;;;;;4.05;1.40;;;;;;;;;;5447237;26;20059;-65
2024/04/19 04:12:35;;;;;;;4.88;1.65;;;;;;;;;;5417345;26;19995;-66
2024/04/19 04:15:00;;;;;;;4.57;1.60;;;;;;;;;;5438874;26;20009;-61
2024/04/19 04:17:26;;;;;;;4.80;1.50;;;;;;;;;;5438293;26;20447;-61
2024/04/19 04:19:52;;;;;;;5.45;1.60;;;;;;;;;;5431963;26;20006;-61
2024/04/19 04:22:18;;;;;;;6.32;1.75;;;;;;;;;;5436106;26;20041;-64
2024/04/19 04:24:43;;;;;;;4.88;1.70;;;;;;;;;;5427034;26;19998;-63
2024/04/19 04:27:09;;;;;;;5.50;1.60;;;;;;;;;;5419098;26;20075;-62
2024/04/19 04:29:34;;;;;;;6.28;1.70;;;;;;;;;;5420030;26;20004;-66
2024/04/19 04:32:00;;;;;;;4.63;1.60;;;;;;;;;;5428381;26;20010;-66
2024/04/19 04:34:25;;;;;;;4.72;1.45;;;;;;;;;;5426894;26;20074;-65
2024/04/19 04:36:52;;;;;;;5.60;1.65;;;;;;;;;;5437018;26;20007;-63
2024/04/19 04:39:17;;;;;;;4.80;1.40;;;;;;;;;;5434755;26;20010;-62
2024/04/19 04:41:43;;;;;;;4.70;1.70;;;;;;;;;;5415747;26;20079;-63
2024/04/19 04:44:10;;;;;;;5.20;1.60;;;;;;;;;;5413808;26;20497;-64
2024/04/19 04:46:35;;;;;;;5.82;1.50;;;;;;;;;;5419705;26;20007;-63
2024/04/19 04:49:01;;;;;;;4.63;1.55;;;;;;;;;;5437677;26;20438;-64
2024/04/19 04:51:26;;;;;;;5.10;1.60;;;;;;;;;;5432335;26;20076;-64
2024/04/19 04:53:52;;;;;;;5.57;1.70;;;;;;;;;;5412933;26;20011;-65
2024/04/19 04:56:18;;;;;;;5.55;1.73;;;;;;;;;;5435108;26;20089;-63
2024/04/19 04:58:44;;;;;;;4.40;1.55;;;;;;;;;;5431286;26;20001;-62
2024/04/19 05:01:09;;;;;;;4.55;1.45;;;;;;;;;;5435283;26;20843;-63
2024/04/19 05:03:35;;;;;;;5.72;1.55;;;;;;;;;;5436914;26;20071;-63
2024/04/19 05:06:00;;;;;;;6.70;1.40;;;;;;;;;;5419884;26;20068;-66
2024/04/19 05:08:26;;;;;;;5.93;1.60;;;;;;;;;;5431352;26;20522;-66
2024/04/19 05:10:51;;;;;;;6.60;1.70;;;;;;;;;;5459974;26;20055;-66
2024/04/19 05:13:17;;;;;;;4.65;1.60;;;;;;;;;;5462448;26;20003;-65
2024/04/19 05:15:43;;;;;;;4.50;1.42;;;;;;;;;;5460051;26;20392;-63
2024/04/19 05:18:08;;;;;;;4.28;1.50;;;;;;;;;;5435884;26;19995;-62
2024/04/19 05:20:34;;;;;;;5.30;1.70;;;;;;;;;;5430916;26;20329;-67
2024/04/19 05:22:59;;;;;;;5.25;1.80;;;;;;;;;;5440681;26;20142;-62
2024/04/19 05:25:25;;;;;;;5.45;1.92;;;;;;;;;;5455088;26;20470;-64
2024/04/19 05:27:50;;;;;;;4.55;1.92;;;;;;;;;;5463018;26;20031;-62
2024/04/19 05:30:16;;;;;;;4.95;1.70;;;;;;;;;;5494491;26;19994;-62
2024/04/19 05:32:42;;;;;;;5.85;1.90;;;;;;;;;;5491241;26;20537;-62
2024/04/19 05:35:07;;;;;;;6.53;2.10;;;;;;;;;;5471037;26;20442;-68
2024/04/19 05:37:34;;;;;;;5.47;2.08;;;;;;;;;;5451720;26;19999;-61
2024/04/19 05:39:59;;;;;;;7.07;1.70;;;;;;;;;;5453016;26;20459;-65
2024/04/19 05:42:24;;;;;;;4.18;1.65;;;;;;;;;;5448708;26;20066;-63
2024/04/19 05:44:50;;;;;;;5.15;2.30;;;;;;;;;;5427332;26;20003;-62
2024/04/19 05:47:16;;;;;;;6.22;2.10;;;;;;;;;;5414069;26;20003;-64
2024/04/19 05:49:43;;;;;;;6.68;2.72;;;;;;;;;;5426725;26;20014;-63
2024/04/19 05:52:08;;;;;;;6.47;2.47;;;;;;;;;;5436261;26;20071;-62
2024/04/19 05:54:34;;;;;;;4.80;2.20;;;;;;;;;;5433431;26;20412;-62
2024/04/19 05:56:59;;;;;;;7.43;2.00;;;;;;;;;;5449588;26;20405;-62
2024/04/19 05:59:25;;;;;;;5.55;2.00;;;;;;;;;;5424161;26;20346;-62
2024/04/19 06:01:50;;;;;;;7.05;2.05;;;;;;;;;;5416223;26;20688;-62
2024/04/19 06:04:16;;;;;;;5.88;2.25;;;;;;;;;;5426558;26;20003;-63
2024/04/19 06:06:41;;;;;;;6.97;2.33;;;;;;;;;;5444562;26;20011;-69
2024/04/19 06:09:07;;;;;;;4.93;1.95;;;;;;;;;;5450155;26;20009;-62
2024/04/19 06:11:32;;;;;;;6.03;2.22;;;;;;;;;;5420283;26;19996;-62
2024/04/19 06:13:58;;;;;;;5.45;2.70;;;;;;;;;;5416404;26;19996;-63
2024/04/19 06:16:23;;;;;;;5.00;2.35;;;;;;;;;;5415940;26;20014;-62
2024/04/19 06:18:49;;;;;;;5.70;2.42;;;;;;;;;;5416464;26;20011;-62
2024/04/19 06:21:14;;;;;;;6.63;2.60;;;;;;;;;;5431635;26;20069;-62
2024/04/19 06:23:40;;;;;;;7.00;2.70;;;;;;;;;;5434190;26;20003;-62
2024/04/19 06:26:06;;;;;;;7.35;2.80;;;;;;;;;;5433569;26;20011;-63
2024/04/19 06:28:34;;;;;;;5.63;2.65;;;;;;;;;;5435182;26;20014;-64
2024/04/19 06:31:09;;;;;;;7.10;2.70;;;;;;;;;;5416292;26;20076;-62
2024/04/19 06:33:35;;;;;;;6.53;2.72;;;;;;;;;;5419511;26;20014;-64
2024/04/19 06:36:00;;;;;;;5.95;2.92;;;;;;;;;;5430520;26;20451;-65
2024/04/19 06:38:26;;;;;;;6.25;3.00;;;;;;;;;;5433598;26;20586;-62
2024/04/19 06:40:51;;;;;;;5.75;2.97;;;;;;;;;;5416647;26;20017;-62
2024/04/19 06:43:17;;;;;;;7.72;3.22;;;;;;;;;;5416629;26;20012;-65
2024/04/19 06:45:42;;;;;;;7.25;3.67;;;;;;;;;;5416326;26;20007;-65
2024/04/19 06:48:08;;;;;;;6.43;3.10;;;;;;;;;;5429303;26;20005;-64
2024/04/19 06:50:33;;;;;;;6.40;3.03;;;;;;;;;;5442827;26;20019;-63
2024/04/19 06:52:59;;;;;;;6.25;3.10;;;;;;;;;;5419151;26;20064;-62
2024/04/19 06:55:24;;;;;;;6.60;3.42;;;;;;;;;;5416143;26;20432;-62
2024/04/19 06:57:50;;;;;;;6.53;3.33;;;;;;;;;;5433163;26;20635;-62
2024/04/19 07:00:15;;;;;;;6.72;2.90;;;;;;;;;;5443814;26;20063;-64
2024/04/19 07:02:41;;;;;;;9.00;3.40;;;;;;;;;;5441534;26;20010;-64
2024/04/19 07:05:07;;;;;;;8.02;3.22;;;;;;;;;;5443675;26;20476;-63
2024/04/19 07:07:32;;;;;;;7.38;3.60;;;;;;;;;;5451480;26;20011;-65
2024/04/19 07:09:58;;;;;;;7.55;3.30;;;;;;;;;;5451087;26;20079;-63
2024/04/19 07:12:23;;;;;;;6.60;3.10;;;;;;;;;;5453899;26;20079;-65
2024/04/19 07:14:49;;;;;;;7.40;3.60;;;;;;;;;;5453249;26;19998;-63
2024/04/19 07:17:14;;;;;;;7.22;3.63;;;;;;;;;;5448173;26;20010;-62
2024/04/19 07:19:40;;;;;;;6.65;3.53;;;;;;;;;;5451623;26;19994;-62
2024/04/19 07:22:05;;;;;;;5.90;3.17;;;;;;;;;;5439608;26;20011;-65
2024/04/19 07:24:31;;;;;;;6.88;3.30;;;;;;;;;;5444060;26;20059;-61
2024/04/19 07:26:56;;;;;;;6.90;3.00;;;;;;;;;;5450950;26;19991;-62
2024/04/19 07:29:22;;;;;;;7.35;3.30;;;;;;;;;;5451107;26;20005;-61
2024/04/19 07:31:47;;;;;;;7.00;3.00;;;;;;;;;;5451484;26;20518;-68
2024/04/19 07:34:13;;;;;;;5.93;2.95;;;;;;;;;;5451240;26;20463;-63
2024/04/19 07:36:38;;;;;;;6.88;3.08;;;;;;;;;;5447800;26;20079;-63
2024/04/19 07:39:04;;;;;;;8.27;3.17;;;;;;;;;;5446760;26;20070;-63
2024/04/19 07:41:29;;;;;;;6.43;3.03;;;;;;;;;;5451609;26;20002;-62
2024/04/19 07:43:55;;;;;;;4.80;2.65;;;;;;;;;;5451420;26;20005;-63
2024/04/19 07:46:20;;;;;;;6.05;2.30;;;;;;;;;;5447922;26;20006;-65
2024/04/19 07:48:46;;;;;;;7.93;2.65;;;;;;;;;;5450987;26;19998;-66
2024/04/19 07:51:12;;;;;;;5.90;2.55;;;;;;;;;;5451159;26;20067;-62
2024/04/19 07:53:37;;;;;;;5.40;2.42;;;;;;;;;;5449143;26;20011;-63
2024/04/19 07:56:03;;;;;;;5.53;2.25;;;;;;;;;;5450318;26;20006;-63
2024/04/19 07:58:28;;;;;;;5.60;1.95;;;;;;;;;;5451049;26;20075;-64
2024/04/19 08:00:54;;;;;;;4.90;1.70;;;;;;;;;;5450655;26;20010;-63
2024/04/19 08:03:19;;;;;;;4.50;1.40;;;;;;;;;;5450516;26;20010;-63
2024/04/19 08:05:45;;;;;;;4.32;1.50;;;;;;;;;;5450365;26;20529;-61
2024/04/19 08:08:10;;;;;;;2.90;1.00;;;;;;;;;;5450648;26;20332;-63
2024/04/19 08:10:36;;;;;;;2.88;0.70;;;;;;;;;;5448136;26;20405;-61
2024/04/19 08:13:01;;;;;;;2.60;0.80;;;;;;;;;;5450437;26;20392;-61
2024/04/19 08:15:27;;;;;;;4.03;1.27;;;;;;;;;;5450594;26;20311;-61
2024/04/19 08:17:52;;;;;;;3.90;1.30;;;;;;;;;;5451091;26;20455;-64
2024/04/19 08:20:18;;;;;;;3.95;1.40;;;;;;;;;;5452444;26;20515;-62
2024/04/19 08:22:43;;;;;;;3.58;1.30;;;;;;;;;;5452522;26;20007;-64
2024/04/19 08:25:09;;;;;;;4.65;1.58;;;;;;;;;;5452482;26;19999;-63
2024/04/19 08:27:35;;;;;;;4.95;1.50;;;;;;;;;;5425409;26;20067;-67
2024/04/19 08:30:00;;;;;;;4.68;1.60;;;;;;;;;;5437585;26;19999;-62
2024/04/19 08:32:26;;;;;;;4.93;2.00;;;;;;;;;;5450004;26;19994;-64
2024/04/19 08:34:54;;;;;;;4.20;1.83;;;;;;;;;;5417091;26;20402;-63
2024/04/19 08:37:19;;;;;;;3.88;1.92;;;;;;;;;;5414124;26;20007;-63
2024/04/19 08:39:45;;;;;;;4.40;1.80;;;;;;;;;;5421967;26;19999;-64
2024/04/19 08:42:13;;;;;;;5.60;2.00;;;;;;;;;;5453314;26;20006;-62
2024/04/19 08:44:42;;;;;;;4.32;1.88;;;;;;;;;;5454624;26;20010;-63
2024/04/19 08:47:08;;;;;;;4.20;1.60;;;;;;;;;;5455933;26;20009;-68
2024/04/19 08:49:34;;;;;;;4.28;1.90;;;;;;;;;;5452036;26;20006;-61
2024/04/19 08:52:00;;;;;;;4.00;2.00;;;;;;;;;;5450673;26;20010;-63
2024/04/19 08:54:26;;;;;;;6.40;1.80;;;;;;;;;;5443808;26;19999;-62
2024/04/19 08:56:52;;;;;;;5.50;2.10;;;;;;;;;;5428016;26;19999;-62
2024/04/19 08:59:18;;;;;;;6.72;2.20;;;;;;;;;;5450013;26;20009;-64
2024/04/19 09:01:43;;;;;;;4.55;2.03;;;;;;;;;;5449803;26;19999;-63
2024/04/19 09:04:09;;;;;;;5.75;2.15;;;;;;;;;;5430365;26;20004;-61
2024/04/19 09:06:35;;;;;;;6.18;2.10;;;;;;;;;;5429946;26;19999;-62
2024/04/19 09:09:01;;;;;;;3.53;1.50;;;;;;;;;;5445185;26;20006;-63
2024/04/19 09:11:26;;;;;;;5.68;2.00;;;;;;;;;;5453766;26;19999;-62
2024/04/19 09:13:52;;;;;;;4.57;1.90;;;;;;;;;;5450579;26;20067;-62
2024/04/19 09:16:17;;;;;;;4.15;1.85;;;;;;;;;;5450929;26;20001;-61
2024/04/19 09:18:47;;;;;;;5.97;1.73;;;;;;;;;;5450548;26;19999;-61
2024/04/19 09:21:13;;;;;;;4.32;1.75;;;;;;;;;;5449597;26;19998;-63
2024/04/19 09:23:38;;;;;;;4.50;1.90;;;;;;;;;;5449115;26;20075;-63
2024/04/19 09:26:04;;;;;;;4.28;1.80;;;;;;;;;;5445871;26;20021;-65
2024/04/19 09:28:29;;;;;;;3.03;1.40;;;;;;;;;;5449503;26;20408;-62
2024/04/19 09:30:55;;;;;;;4.22;1.67;;;;;;;;;;5441486;26;20618;-62
2024/04/19 09:33:22;;;;;;;4.28;1.55;;;;;;;;;;5413566;26;19991;-62
2024/04/19 09:35:47;;;;;;;;;;;;;;;;;;5440286;26;20015;-62
2024/04/19 09:38:13;;;;;;;3.10;1.20;;;;;;;;;;5413453;26;19925;-64
2024/04/19 09:40:39;;;;;;;3.65;1.58;;;;;;;;;;5413333;26;20003;-63
2024/04/19 09:43:08;;;;;;;6.30;1.50;;;;;;;;;;5440763;26;20002;-61
2024/04/19 09:45:48;;;;;;;5.13;1.40;;;;;;;;;;5449070;26;20011;-64
2024/04/19 09:48:15;;;;;;;3.30;1.30;;;;;;;;;;5449257;26;20376;-62
2024/04/19 09:50:45;;;;;;;3.80;1.30;;;;;;;;;;5449614;26;19999;-62
2024/04/19 09:53:14;;;;;;;3.38;1.40;;;;;;;;;;5448827;26;20010;-63
2024/04/19 09:55:49;;;;;;;3.80;1.50;;;;;;;;;;5448411;26;20002;-62
2024/04/19 09:58:15;;;;;;;2.97;1.10;;;;;;;;;;5439808;26;20008;-65
2024/04/19 10:00:40;;;;;;;3.55;1.23;;;;;;;;;;5446574;26;20002;-65
2024/04/19 10:03:09;;;;;;;3.15;1.20;;;;;;;;;;5448850;26;19995;-63
2024/04/19 10:05:35;;;;;;;2.30;0.93;;;;;;;;;;5448074;26;19998;-66
2024/04/19 10:08:02;;;;;;;3.10;1.13;;;;;;;;;;5448569;26;20293;-66
2024/04/19 10:10:27;;;;;;;4.35;1.30;;;;;;;;;;5451009;26;20006;-70
2024/04/19 10:12:53;;;;;;;3.53;1.10;;;;;;;;;;5452192;26;20013;-65
2024/04/19 10:15:19;;;;;;;2.67;1.00;;;;;;;;;;5446747;26;20319;-62
2024/04/19 10:17:44;;;;;;;2.67;1.05;;;;;;;;;;5452177;26;20010;-63
2024/04/19 10:20:13;;;;;;;3.15;1.05;;;;;;;;;;5452298;26;20074;-63
2024/04/19 10:22:44;;;;;;;3.42;1.00;;;;;;;;;;5451999;26;20010;-62
2024/04/19 10:25:10;;;;;;;2.63;0.90;;;;;;;;;;5452333;26;19994;-62
2024/04/19 10:27:35;;;;;;;2.42;0.93;;;;;;;;;;5439799;26;20591;-62
2024/04/19 10:30:04;;;;;;;2.50;0.85;;;;;;;;;;5429570;26;20401;-66
2024/04/19 10:32:30;;;;;;;2.55;0.90;;;;;;;;;;5446708;26;20013;-62
2024/04/19 10:34:55;;;;;;;2.10;0.90;;;;;;;;;;5447256;26;20006;-63
2024/04/19 10:37:21;;;;;;;2.53;1.00;;;;;;;;;;5413883;26;20396;-63
2024/04/19 10:39:47;;;;;;;3.15;1.10;;;;;;;;;;5415376;26;20773;-63
2024/04/19 10:42:12;;;;;;;2.50;1.00;;;;;;;;;;5415357;26;20114;-62
2024/04/19 10:44:41;;;;;;;2.70;1.10;;;;;;;;;;5415695;26;19999;-62
2024/04/19 10:47:07;;;;;;;2.67;1.05;;;;;;;;;;5440342;26;19999;-61
2024/04/19 10:49:32;;;;;;;2.38;0.95;;;;;;;;;;5451476;26;20182;-62
2024/04/19 10:51:59;;;;;;;4.20;0.90;;;;;;;;;;5451730;26;20007;-64
2024/04/19 10:54:25;;;;;;;3.42;1.20;;;;;;;;;;5449781;26;20363;-63
2024/04/19 10:56:51;;;;;;;2.25;0.90;;;;;;;;;;5451072;26;20009;-61
2024/04/19 10:59:17;;;;;;;2.67;0.80;;;;;;;;;;5451418;26;20013;-63
2024/04/19 11:01:44;;;;;;;2.85;1.00;;;;;;;;;;5447316;26;20007;-63
2024/04/19 11:04:11;;;;;;;3.35;1.00;;;;;;;;;;5436248;26;19995;-65
2024/04/19 11:06:37;;;;;;;3.10;1.00;;;;;;;;;;5449303;26;19998;-62
2024/04/19 11:09:03;;;;;;;2.83;1.05;;;;;;;;;;5451612;26;20041;-65
2024/04/19 11:11:36;;;;;;;2.83;1.05;;;;;;;;;;5452178;26;20331;-65
2024/04/19 11:14:02;;;;;;;2.45;0.95;;;;;;;;;;5449981;26;19999;-63
2024/04/19 11:16:27;;;;;;;2.65;0.90;;;;;;;;;;5454475;26;20003;-69
2024/04/19 11:18:53;;;;;;;4.05;1.00;;;;;;;;;;5452999;26;20009;-63
2024/04/19 11:21:18;;;;;;;4.03;0.88;;;;;;;;;;5450744;26;20408;-63
2024/04/19 11:23:44;;;;;;;4.00;1.02;;;;;;;;;;5451292;26;20424;-66
2024/04/19 11:26:09;;;;;;;2.15;0.90;;;;;;;;;;5451098;26;20335;-63
2024/04/19 11:28:35;;;;;;;2.50;0.80;;;;;;;;;;5435633;26;20062;-64
2024/04/19 11:31:08;;;;;;;2.95;0.90;;;;;;;;;;5437481;26;20075;-64
2024/04/19 11:33:33;;;;;;;2.70;0.80;;;;;;;;;;5451131;26;20355;-62
2024/04/19 11:35:59;;;;;;;4.13;0.93;;;;;;;;;;5444957;26;20071;-63
2024/04/19 11:38:24;;;;;;;2.25;0.90;;;;;;;;;;5415577;26;19988;-62
2024/04/19 11:40:52;;;;;;;2.55;0.98;;;;;;;;;;5414872;26;20003;-66
2024/04/19 11:43:18;;;;;;;2.50;0.90;;;;;;;;;;5418350;26;19996;-62
2024/04/19 11:45:44;;;;;;;2.72;1.08;;;;;;;;;;5450600;26;20394;-63
2024/04/19 11:48:10;;;;;;;;;;;;;;;;;;5451590;26;20126;-63
2024/04/19 11:50:35;;;;;;;3.17;1.00;;;;;;;;;;5450915;26;20374;-62
2024/04/19 11:53:01;;;;;;;2.58;0.90;;;;;;;;;;5450837;26;20341;-61
2024/04/19 11:55:26;;;;;;;2.30;0.90;;;;;;;;;;5450731;26;20463;-63
2024/04/19 11:57:53;;;;;;;2.30;0.70;;;;;;;;;;5450573;26;20511;-61
2024/04/19 12:00:19;;;;;;;2.60;0.90;;;;;;;;;;5447062;26;20068;-61
2024/04/19 12:02:44;;;;;;;4.13;0.90;;;;;;;;;;5427226;26;20010;-64
2024/04/19 12:05:10;;;;;;;1.88;0.70;;;;;;;;;;5449063;26;20003;-62
2024/04/19 12:07:36;;;;;;;2.00;0.80;;;;;;;;;;5436107;26;20007;-61
2024/04/19 12:10:01;;;;;;;1.75;0.60;;;;;;;;;;5410409;26;20017;-63
2024/04/19 12:12:27;;;;;;;2.53;0.65;;;;;;;;;;5410031;26;20003;-64
2024/04/19 12:14:52;;;;;;;1.42;0.55;;;;;;;;;;5417650;26;20041;-61
2024/04/19 12:17:18;;;;;;;1.48;0.60;;;;;;;;;;5437476;26;20709;-61
2024/04/19 12:19:44;;;;;;;2.55;0.80;;;;;;;;;;5422307;26;20715;-63
2024/04/19 12:22:09;;;;;;;2.13;0.60;;;;;;;;;;5431227;26;20010;-64
2024/04/19 12:24:36;;;;;;;1.75;0.70;;;;;;;;;;5443000;26;20006;-63
2024/04/19 12:27:04;;;;;;;2.95;0.63;;;;;;;;;;5445141;26;20005;-62
2024/04/19 12:29:29;;;;;;;1.67;0.50;;;;;;;;;;5438946;26;19995;-63
2024/04/19 12:31:55;;;;;;;0.98;0.40;;;;;;;;;;5419990;26;20071;-63
2024/04/19 12:34:21;;;;;;;1.98;0.40;;;;;;;;;;5445331;26;20006;-62
2024/04/19 12:36:48;;;;;;;1.25;0.32;;;;;;;;;;5436653;26;20009;-61
2024/04/19 12:39:13;;;;;;;1.92;0.30;;;;;;;;;;5444902;26;20559;-63
2024/04/19 12:41:39;;;;;;;1.13;0.30;;;;;;;;;;5439499;26;20011;-61
2024/04/19 12:44:04;;;;;;;1.05;0.20;;;;;;;;;;5438745;26;20011;-62
2024/04/19 12:46:30;;;;;;;0.73;0.30;;;;;;;;;;5439671;26;20071;-63
2024/04/19 12:49:01;;;;;;;0.65;0.20;;;;;;;;;;5445377;26;19991;-61
2024/04/19 12:51:26;;;;;;;0.38;0.20;;;;;;;;;;5432556;26;19995;-61
2024/04/19 12:53:53;;;;;;;1.58;0.43;;;;;;;;;;5434021;26;20060;-62
2024/04/19 12:56:18;;;;;;;1.17;0.20;;;;;;;;;;5423671;26;19995;-62
2024/04/19 12:58:44;;;;;;;0.73;0.22;;;;;;;;;;5423077;26;21510;-64
2024/04/19 13:01:09;;;;;;;1.00;0.30;;;;;;;;;;5426250;26;20012;-62
2024/04/19 13:03:35;;;;;;;0.90;0.32;;;;;;;;;;5436947;26;20076;-63
2024/04/19 13:06:00;;;;;;;1.05;0.30;;;;;;;;;;5424868;26;20014;-65
2024/04/19 13:08:26;;;;;;;2.50;0.80;;;;;;;;;;5429563;26;20008;-65
2024/04/19 13:10:52;;;;;;;2.25;0.60;;;;;;;;;;5433177;26;20125;-64
2024/04/19 13:13:17;;;;;;;2.67;0.40;;;;;;;;;;5442813;26;20134;-64
2024/04/19 13:15:43;;;;;;;1.27;0.35;;;;;;;;;;5431259;26;20011;-62
2024/04/19 13:18:08;;;;;;;1.20;0.40;;;;;;;;;;5452941;26;20002;-65
2024/04/19 13:20:34;;;;;;;0.70;0.30;;;;;;;;;;5457522;26;19999;-62
2024/04/19 13:22:59;;;;;;;2.42;0.50;;;;;;;;;;5428582;26;20090;-62
2024/04/19 13:25:25;;;;;;;1.10;0.35;;;;;;;;;;5415418;26;20503;-67
2024/04/19 13:27:50;;;;;;;1.05;0.30;;;;;;;;;;5426051;26;20447;-65
2024/04/19 13:30:16;;;;;;;1.60;0.40;;;;;;;;;;5423762;26;20012;-62
2024/04/19 13:32:41;;;;;;;1.25;0.40;;;;;;;;;;5434531;26;20017;-62
2024/04/19 13:35:07;;;;;;;0.73;0.40;;;;;;;;;;5430823;26;20007;-64
2024/04/19 13:37:32;;;;;;;1.92;0.43;;;;;;;;;;5437025;26;20011;-63
2024/04/19 13:39:58;;;;;;;0.95;0.30;;;;;;;;;;5430728;26;20010;-62
2024/04/19 13:42:25;;;;;;;0.68;0.30;;;;;;;;;;5411253;26;20011;-64
2024/04/19 13:44:50;;;;;;;1.23;0.40;;;;;;;;;;5417595;26;20015;-63
2024/04/19 13:47:16;;;;;;;1.13;0.40;;;;;;;;;;5418382;26;20091;-61
2024/04/19 13:49:43;;;;;;;1.40;0.40;;;;;;;;;;5412013;26;20344;-63
2024/04/19 13:52:09;;;;;;;1.42;0.40;;;;;;;;;;5411767;26;20645;-63
2024/04/19 13:54:34;;;;;;;2.58;0.60;;;;;;;;;;5420639;26;19991;-62
2024/04/19 13:57:00;;;;;;;2.33;0.50;;;;;;;;;;5445303;26;20075;-62
2024/04/19 13:59:25;;;;;;;1.70;0.50;;;;;;;;;;5450265;26;20003;-64
2024/04/19 14:01:51;;;;;;;0.93;0.40;;;;;;;;;;5432327;26;20012;-63
2024/04/19 14:04:17;;;;;;;2.03;0.50;;;;;;;;;;5412113;26;20075;-62
2024/04/19 14:06:42;;;;;;;1.90;0.70;;;;;;;;;;5426335;26;20004;-62
2024/04/19 14:09:08;;;;;;;1.30;0.50;;;;;;;;;;5447879;26;20014;-64
2024/04/19 14:11:36;;;;;;;1.85;0.57;;;;;;;;;;5430596;26;20079;-64
2024/04/19 14:14:02;;;;;;;1.30;0.43;;;;;;;;;;5428842;26;20014;-62
2024/04/19 14:16:28;;;;;;;2.10;0.40;;;;;;;;;;5452748;26;19995;-61
2024/04/19 14:18:53;;;;;;;0.68;0.30;;;;;;;;;;5432643;26;20018;-63
2024/04/19 14:21:19;;;;;;;0.68;0.30;;;;;;;;;;5450031;26;20067;-62
2024/04/19 14:23:47;;;;;;;1.35;0.40;;;;;;;;;;5445459;26;19999;-62
2024/04/19 14:26:20;;;;;;;1.67;0.30;;;;;;;;;;5428268;26;20350;-62
2024/04/19 14:28:46;;;;;;;1.20;0.40;;;;;;;;;;5416319;26;20019;-63
2024/04/19 14:31:12;;;;;;;1.00;0.40;;;;;;;;;;5415829;26;20015;-61
2024/04/19 14:33:37;;;;;;;0.93;0.30;;;;;;;;;;5448690;26;20056;-62
2024/04/19 14:36:04;;;;;;;0.60;0.25;;;;;;;;;;5451460;26;20371;-62
2024/04/19 14:38:30;;;;;;;1.15;0.30;;;;;;;;;;5451923;26;20003;-61
2024/04/19 14:40:55;;;;;;;0.93;0.30;;;;;;;;;;5418694;26;20319;-61